KMEZ

Mena Intermountain Municipal Airport

Mena, Arkansas, USA
METAR KMEZ 151835Z AUTO 06005KT 10SM OVC016 12/07 A2974 RMK AO2
Observed Flight Rules
Feb-15 @ 18:35 UTC (32 minutes ago) Marginal Visual Flight Rules
Wind Visibility Clouds
60° at 5 knots 10 miles
  • Overcast at 1,600' AGL
Temperatures Readings
Current 12°C / 54°F
Dewpoint 7°C / 45°F
Humidity 72%
Altimeter 29.74" Hg
Pressure 1007.12 hPa
Elevation 329
METAR KMEZ 151835Z AUTO 06005KT 10SM OVC016 12/07 A2974 RMK AO2
Observed Flight Rules
Feb-15 @ 18:35 UTC
(32 minutes ago)
MVFR
Wind Visibility
60° at 5 knots 10 miles
Clouds
  • Overcast at 1,600' AGL
Temperature Dewpoint
12°C / 54°F 7°C / 45°F
Humidity Altimeter Pressure
72% 29.74" Hg 1007.12 hPa